CheckWX is a tool to help pilots better visualize weather data.  It is not intended as a substitute for an official pre-flight weather briefing.

08:12:34 UTC

KOXB METAR
Ocean City Municipal Airport
Ocean City, Maryland, USA
Current

20 mins ago

KOXB 230753Z AUTO 29005KT 10SM CLR 13/11 A3004 RMK AO2 SLP172 T01280106
Observed
Apr-23 @ 07:53 UTC
Wind
  • 290° at 5 KTS
Visibility
10 SM
Flight Rules
VFR
Cloud Levels
  • Clear skies
Temperature
13°C / 55°F
Dewpoint
11°C / 52°F
Humidity
88%
Altimeter
30.04" Hg
Pressure
1017.32 hPa
Previous

1 hour ago

KOXB 230653Z AUTO 29005KT 10SM CLR 13/10 A3004 RMK AO2 SLP172 T01280100
Observed
Apr-23 @ 06:53 UTC
Wind
  • 290° at 5 KTS
Visibility
10 SM
Flight Rules
VFR
Cloud Levels
  • Clear skies
Temperature
13°C / 55°F
Dewpoint
10°C / 50°F
Humidity
82%
Altimeter
30.04" Hg
Pressure
1017.32 hPa
Previous

2 hours ago

KOXB 230553Z AUTO 28004KT 10SM CLR 13/11 A3005 RMK AO2 SLP176 T01330106 10161 20106 58003
Observed
Apr-23 @ 05:53 UTC
Wind
  • 280° at 4 KTS
Visibility
10 SM
Flight Rules
VFR
Cloud Levels
  • Clear skies
Temperature
13°C / 55°F
Dewpoint
11°C / 52°F
Humidity
88%
Altimeter
30.05" Hg
Pressure
1017.62 hPa